sensor_id;sensor_type;location;lat;lon;timestamp;pressure;altitude;pressure_sealevel;temperature;humidity
8069;BME280;4077;43.702;24.896;2024-01-30T00:01:44;51474.59;;;-145.38;100.00
8069;BME280;4077;43.702;24.896;2024-01-30T00:04:09;51521.44;;;-145.38;100.00
8069;BME280;4077;43.702;24.896;2024-01-30T00:06:35;51513.63;;;-145.38;100.00
8069;BME280;4077;43.702;24.896;2024-01-30T00:09:00;51525.34;;;-145.38;100.00
8069;BME280;4077;43.702;24.896;2024-01-30T00:11:26;51523.38;;;-145.38;100.00
8069;BME280;4077;43.702;24.896;2024-01-30T00:13:52;51517.53;;;-145.38;100.00
8069;BME280;4077;43.702;24.896;2024-01-30T00:16:24;51521.44;;;-145.38;100.00
8069;BME280;4077;43.702;24.896;2024-01-30T00:18:51;51501.91;;;-145.38;100.00
8069;BME280;4077;43.702;24.896;2024-01-30T00:21:17;51539.00;;;-145.38;100.00
8069;BME280;4077;43.702;24.896;2024-01-30T00:23:43;51507.78;;;-145.38;100.00
8069;BME280;4077;43.702;24.896;2024-01-30T00:26:09;51517.53;;;-145.38;100.00
8069;BME280;4077;43.702;24.896;2024-01-30T00:28:34;51509.72;;;-145.38;100.00
8069;BME280;4077;43.702;24.896;2024-01-30T00:31:00;51515.59;;;-145.38;100.00
8069;BME280;4077;43.702;24.896;2024-01-30T00:33:25;51533.16;;;-145.38;100.00
8069;BME280;4077;43.702;24.896;2024-01-30T00:35:51;51501.91;;;-145.38;100.00
8069;BME280;4077;43.702;24.896;2024-01-30T00:38:16;51529.25;;;-145.38;100.00
8069;BME280;4077;43.702;24.896;2024-01-30T00:40:42;51517.53;;;-145.38;100.00
8069;BME280;4077;43.702;24.896;2024-01-30T00:43:07;51521.44;;;-145.38;100.00
8069;BME280;4077;43.702;24.896;2024-01-30T00:45:34;51505.81;;;-145.38;100.00
8069;BME280;4077;43.702;24.896;2024-01-30T00:47:59;51519.47;;;-145.38;100.00
8069;BME280;4077;43.702;24.896;2024-01-30T00:50:24;51513.63;;;-145.38;100.00
8069;BME280;4077;43.702;24.896;2024-01-30T00:52:50;51505.81;;;-145.38;100.00
8069;BME280;4077;43.702;24.896;2024-01-30T00:55:16;51535.09;;;-145.38;100.00
8069;BME280;4077;43.702;24.896;2024-01-30T00:57:41;51539.00;;;-145.38;100.00
8069;BME280;4077;43.702;24.896;2024-01-30T01:00:07;51507.78;;;-145.38;100.00
8069;BME280;4077;43.702;24.896;2024-01-30T01:02:37;51488.25;;;-145.38;100.00
8069;BME280;4077;43.702;24.896;2024-01-30T01:05:04;51521.44;;;-145.38;100.00
8069;BME280;4077;43.702;24.896;2024-01-30T01:07:30;51523.38;;;-145.38;100.00
8069;BME280;4077;43.702;24.896;2024-01-30T01:09:56;51517.53;;;-145.38;100.00
8069;BME280;4077;43.702;24.896;2024-01-30T01:12:21;51509.72;;;-145.38;100.00
8069;BME280;4077;43.702;24.896;2024-01-30T01:14:47;51478.50;;;-145.38;100.00
8069;BME280;4077;43.702;24.896;2024-01-30T01:17:12;51527.28;;;-145.38;100.00
8069;BME280;4077;43.702;24.896;2024-01-30T01:19:39;51515.59;;;-145.38;100.00
8069;BME280;4077;43.702;24.896;2024-01-30T01:22:05;51525.34;;;-145.38;100.00
8069;BME280;4077;43.702;24.896;2024-01-30T01:24:31;51529.25;;;-145.38;100.00
8069;BME280;4077;43.702;24.896;2024-01-30T01:26:58;51501.91;;;-145.38;100.00
8069;BME280;4077;43.702;24.896;2024-01-30T01:32:50;51486.28;;;-145.38;100.00
8069;BME280;4077;43.702;24.896;2024-01-30T01:35:22;51552.66;;;-145.38;100.00
8069;BME280;4077;43.702;24.896;2024-01-30T01:37:49;51458.97;;;-145.38;100.00
8069;BME280;4077;43.702;24.896;2024-01-30T01:40:23;51490.19;;;-145.38;100.00
8069;BME280;4077;43.702;24.896;2024-01-30T01:42:50;51521.44;;;-145.38;100.00
8069;BME280;4077;43.702;24.896;2024-01-30T01:45:17;51505.81;;;-145.38;100.00
8069;BME280;4077;43.702;24.896;2024-01-30T01:47:43;51525.34;;;-145.38;100.00
8069;BME280;4077;43.702;24.896;2024-01-30T01:50:14;51517.53;;;-145.38;100.00
8069;BME280;4077;43.702;24.896;2024-01-30T01:52:44;51525.34;;;-145.38;100.00
8069;BME280;4077;43.702;24.896;2024-01-30T01:55:10;51519.47;;;-145.38;100.00
8069;BME280;4077;43.702;24.896;2024-01-30T01:57:36;51521.44;;;-145.38;100.00
8069;BME280;4077;43.702;24.896;2024-01-30T02:00:02;51537.06;;;-145.38;100.00
8069;BME280;4077;43.702;24.896;2024-01-30T02:02:30;51505.81;;;-145.38;100.00
8069;BME280;4077;43.702;24.896;2024-01-30T02:05:00;51525.34;;;-145.38;100.00
8069;BME280;4077;43.702;24.896;2024-01-30T02:07:29;51515.59;;;-145.38;100.00
8069;BME280;4077;43.702;24.896;2024-01-30T02:09:55;51486.28;;;-145.38;100.00
8069;BME280;4077;43.702;24.896;2024-01-30T02:12:21;51509.72;;;-145.38;100.00
8069;BME280;4077;43.702;24.896;2024-01-30T02:14:47;51507.78;;;-145.38;100.00
8069;BME280;4077;43.702;24.896;2024-01-30T02:17:13;51548.78;;;-145.38;100.00
8069;BME280;4077;43.702;24.896;2024-01-30T02:19:39;51503.88;;;-145.38;100.00
8069;BME280;4077;43.702;24.896;2024-01-30T02:22:05;51501.91;;;-145.38;100.00
8069;BME280;4077;43.702;24.896;2024-01-30T02:24:31;51537.06;;;-145.38;100.00
8069;BME280;4077;43.702;24.896;2024-01-30T02:26:57;51509.72;;;-145.38;100.00
8069;BME280;4077;43.702;24.896;2024-01-30T02:29:22;51540.97;;;-145.38;100.00
8069;BME280;4077;43.702;24.896;2024-01-30T02:31:48;51519.47;;;-145.38;100.00
8069;BME280;4077;43.702;24.896;2024-01-30T02:34:14;51533.16;;;-145.38;100.00
8069;BME280;4077;43.702;24.896;2024-01-30T02:36:43;51537.06;;;-145.38;100.00
8069;BME280;4077;43.702;24.896;2024-01-30T02:39:09;51525.34;;;-145.38;100.00
8069;BME280;4077;43.702;24.896;2024-01-30T02:41:35;51478.50;;;-145.38;100.00
8069;BME280;4077;43.702;24.896;2024-01-30T02:44:01;51494.09;;;-145.38;100.00
8069;BME280;4077;43.702;24.896;2024-01-30T02:46:27;51529.25;;;-145.38;100.00
8069;BME280;4077;43.702;24.896;2024-01-30T02:48:53;51548.78;;;-145.38;100.00
8069;BME280;4077;43.702;24.896;2024-01-30T02:51:18;51488.25;;;-145.38;100.00
8069;BME280;4077;43.702;24.896;2024-01-30T02:53:44;51490.19;;;-145.38;100.00
8069;BME280;4077;43.702;24.896;2024-01-30T02:56:09;51507.78;;;-145.38;100.00
8069;BME280;4077;43.702;24.896;2024-01-30T02:58:39;51501.91;;;-145.38;100.00
8069;BME280;4077;43.702;24.896;2024-01-30T03:01:05;51507.78;;;-145.38;100.00
8069;BME280;4077;43.702;24.896;2024-01-30T03:03:31;51540.97;;;-145.38;100.00
8069;BME280;4077;43.702;24.896;2024-01-30T03:05:57;51505.81;;;-145.38;100.00
8069;BME280;4077;43.702;24.896;2024-01-30T03:08:22;51505.81;;;-145.38;100.00
8069;BME280;4077;43.702;24.896;2024-01-30T03:10:48;51494.09;;;-145.38;100.00
8069;BME280;4077;43.702;24.896;2024-01-30T03:13:14;51494.09;;;-145.38;100.00
8069;BME280;4077;43.702;24.896;2024-01-30T03:15:39;51560.47;;;-145.38;100.00
8069;BME280;4077;43.702;24.896;2024-01-30T03:18:05;51529.25;;;-145.38;100.00
8069;BME280;4077;43.702;24.896;2024-01-30T03:20:30;51478.50;;;-145.38;100.00
8069;BME280;4077;43.702;24.896;2024-01-30T03:22:57;51505.81;;;-145.38;100.00
8069;BME280;4077;43.702;24.896;2024-01-30T03:25:22;51501.91;;;-145.38;100.00
8069;BME280;4077;43.702;24.896;2024-01-30T03:27:48;51523.38;;;-145.38;100.00
8069;BME280;4077;43.702;24.896;2024-01-30T03:30:14;51482.38;;;-145.38;100.00
8069;BME280;4077;43.702;24.896;2024-01-30T03:32:39;51517.53;;;-145.38;100.00
8069;BME280;4077;43.702;24.896;2024-01-30T03:35:05;51523.38;;;-145.38;100.00
8069;BME280;4077;43.702;24.896;2024-01-30T03:37:31;51515.59;;;-145.38;100.00
8069;BME280;4077;43.702;24.896;2024-01-30T03:39:57;51521.44;;;-145.38;100.00
8069;BME280;4077;43.702;24.896;2024-01-30T03:42:22;51486.28;;;-145.38;100.00
8069;BME280;4077;43.702;24.896;2024-01-30T03:44:48;51519.47;;;-145.38;100.00
8069;BME280;4077;43.702;24.896;2024-01-30T03:47:14;51546.81;;;-145.38;100.00
8069;BME280;4077;43.702;24.896;2024-01-30T03:49:40;51494.09;;;-145.38;100.00
8069;BME280;4077;43.702;24.896;2024-01-30T03:52:05;51513.63;;;-145.38;100.00
8069;BME280;4077;43.702;24.896;2024-01-30T03:54:31;51525.34;;;-145.38;100.00
8069;BME280;4077;43.702;24.896;2024-01-30T03:56:56;51544.88;;;-145.38;100.00
8069;BME280;4077;43.702;24.896;2024-01-30T03:59:22;51507.78;;;-145.38;100.00
8069;BME280;4077;43.702;24.896;2024-01-30T04:01:52;51515.59;;;-145.38;100.00
8069;BME280;4077;43.702;24.896;2024-01-30T04:04:18;51517.53;;;-145.38;100.00
8069;BME280;4077;43.702;24.896;2024-01-30T04:06:44;51521.44;;;-145.38;100.00
8069;BME280;4077;43.702;24.896;2024-01-30T04:09:10;51529.25;;;-145.38;100.00
8069;BME280;4077;43.702;24.896;2024-01-30T04:11:36;51490.19;;;-145.38;100.00
8069;BME280;4077;43.702;24.896;2024-01-30T04:14:02;51501.91;;;-145.38;100.00
8069;BME280;4077;43.702;24.896;2024-01-30T04:16:27;51519.47;;;-145.38;100.00
8069;BME280;4077;43.702;24.896;2024-01-30T04:18:53;51478.50;;;-145.38;100.00
8069;BME280;4077;43.702;24.896;2024-01-30T04:21:20;51474.59;;;-145.38;100.00
8069;BME280;4077;43.702;24.896;2024-01-30T04:23:46;51515.59;;;-145.38;100.00
8069;BME280;4077;43.702;24.896;2024-01-30T04:26:12;51521.44;;;-145.38;100.00
8069;BME280;4077;43.702;24.896;2024-01-30T04:28:37;51531.19;;;-145.38;100.00
8069;BME280;4077;43.702;24.896;2024-01-30T04:31:03;51525.34;;;-145.38;100.00
8069;BME280;4077;43.702;24.896;2024-01-30T04:33:28;51517.53;;;-145.38;100.00
8069;BME280;4077;43.702;24.896;2024-01-30T04:35:54;51515.59;;;-145.38;100.00
8069;BME280;4077;43.702;24.896;2024-01-30T04:38:19;51482.38;;;-145.38;100.00
8069;BME280;4077;43.702;24.896;2024-01-30T04:40:45;51542.91;;;-145.38;100.00
8069;BME280;4077;43.702;24.896;2024-01-30T04:43:10;51517.53;;;-145.38;100.00
8069;BME280;4077;43.702;24.896;2024-01-30T04:45:36;51515.59;;;-145.38;100.00
8069;BME280;4077;43.702;24.896;2024-01-30T04:48:01;51515.59;;;-145.38;100.00
8069;BME280;4077;43.702;24.896;2024-01-30T04:50:27;51539.00;;;-145.38;100.00
8069;BME280;4077;43.702;24.896;2024-01-30T04:52:53;51509.72;;;-145.38;100.00
8069;BME280;4077;43.702;24.896;2024-01-30T04:55:18;51503.88;;;-145.38;100.00
8069;BME280;4077;43.702;24.896;2024-01-30T04:57:44;51568.28;;;-145.38;100.00
8069;BME280;4077;43.702;24.896;2024-01-30T05:00:10;51484.34;;;-145.38;100.00
8069;BME280;4077;43.702;24.896;2024-01-30T05:02:35;51505.81;;;-145.38;100.00
8069;BME280;4077;43.702;24.896;2024-01-30T05:05:01;51474.59;;;-145.38;100.00
8069;BME280;4077;43.702;24.896;2024-01-30T05:07:27;51490.19;;;-145.38;100.00
8069;BME280;4077;43.702;24.896;2024-01-30T05:09:53;51521.44;;;-145.38;100.00
8069;BME280;4077;43.702;24.896;2024-01-30T05:12:19;51490.19;;;-145.38;100.00
8069;BME280;4077;43.702;24.896;2024-01-30T05:14:45;51505.81;;;-145.38;100.00
8069;BME280;4077;43.702;24.896;2024-01-30T05:17:10;51509.72;;;-145.38;100.00
8069;BME280;4077;43.702;24.896;2024-01-30T05:19:38;51484.34;;;-145.38;100.00
8069;BME280;4077;43.702;24.896;2024-01-30T05:22:03;51513.63;;;-145.38;100.00
8069;BME280;4077;43.702;24.896;2024-01-30T05:24:29;51521.44;;;-145.38;100.00
8069;BME280;4077;43.702;24.896;2024-01-30T05:26:55;51540.97;;;-145.38;100.00
8069;BME280;4077;43.702;24.896;2024-01-30T05:29:20;51505.81;;;-145.38;100.00
8069;BME280;4077;43.702;24.896;2024-01-30T05:31:46;51488.25;;;-145.38;100.00
8069;BME280;4077;43.702;24.896;2024-01-30T05:34:11;51486.28;;;-145.38;100.00
8069;BME280;4077;43.702;24.896;2024-01-30T05:36:37;51494.09;;;-145.38;100.00
8069;BME280;4077;43.702;24.896;2024-01-30T05:39:02;51496.06;;;-145.38;100.00
8069;BME280;4077;43.702;24.896;2024-01-30T05:41:27;51513.63;;;-145.38;100.00
8069;BME280;4077;43.702;24.896;2024-01-30T05:43:53;51550.72;;;-145.38;100.00
8069;BME280;4077;43.702;24.896;2024-01-30T05:46:19;51505.81;;;-145.38;100.00
8069;BME280;4077;43.702;24.896;2024-01-30T05:48:44;51517.53;;;-145.38;100.00
8069;BME280;4077;43.702;24.896;2024-01-30T05:51:10;51472.63;;;-145.38;100.00
8069;BME280;4077;43.702;24.896;2024-01-30T05:53:35;51509.72;;;-145.38;100.00
8069;BME280;4077;43.702;24.896;2024-01-30T05:56:02;51531.19;;;-145.38;100.00
8069;BME280;4077;43.702;24.896;2024-01-30T05:58:28;51535.09;;;-145.38;100.00
8069;BME280;4077;43.702;24.896;2024-01-30T06:00:54;51535.09;;;-145.38;100.00
8069;BME280;4077;43.702;24.896;2024-01-30T06:03:19;51505.81;;;-145.38;100.00
8069;BME280;4077;43.702;24.896;2024-01-30T06:05:45;51486.28;;;-145.38;100.00
8069;BME280;4077;43.702;24.896;2024-01-30T06:08:10;51509.72;;;-145.38;100.00
8069;BME280;4077;43.702;24.896;2024-01-30T06:10:36;51546.81;;;-145.38;100.00
8069;BME280;4077;43.702;24.896;2024-01-30T06:13:01;51488.25;;;-145.38;100.00
8069;BME280;4077;43.702;24.896;2024-01-30T06:15:27;51548.78;;;-145.38;100.00
8069;BME280;4077;43.702;24.896;2024-01-30T06:17:55;51492.16;;;-145.38;100.00
8069;BME280;4077;43.702;24.896;2024-01-30T06:20:20;51544.88;;;-145.38;100.00
8069;BME280;4077;43.702;24.896;2024-01-30T06:22:46;51486.28;;;-145.38;100.00
8069;BME280;4077;43.702;24.896;2024-01-30T06:25:11;51507.78;;;-145.38;100.00
8069;BME280;4077;43.702;24.896;2024-01-30T06:27:37;51533.16;;;-145.38;100.00
8069;BME280;4077;43.702;24.896;2024-01-30T06:30:04;51509.72;;;-145.38;100.00
8069;BME280;4077;43.702;24.896;2024-01-30T06:32:29;51531.19;;;-145.38;100.00
8069;BME280;4077;43.702;24.896;2024-01-30T06:35:02;51529.25;;;-145.38;100.00
8069;BME280;4077;43.702;24.896;2024-01-30T06:37:28;51505.81;;;-145.38;100.00
8069;BME280;4077;43.702;24.896;2024-01-30T06:39:53;51531.19;;;-145.38;100.00
8069;BME280;4077;43.702;24.896;2024-01-30T06:42:19;51517.53;;;-145.38;100.00
8069;BME280;4077;43.702;24.896;2024-01-30T06:44:45;51548.78;;;-145.38;100.00
8069;BME280;4077;43.702;24.896;2024-01-30T06:47:10;51517.53;;;-145.38;100.00
8069;BME280;4077;43.702;24.896;2024-01-30T06:49:36;51503.88;;;-145.38;100.00
8069;BME280;4077;43.702;24.896;2024-01-30T06:52:08;51498.00;;;-145.38;100.00
8069;BME280;4077;43.702;24.896;2024-01-30T06:54:33;51490.19;;;-145.38;100.00
8069;BME280;4077;43.702;24.896;2024-01-30T06:56:59;51525.34;;;-145.38;100.00
8069;BME280;4077;43.702;24.896;2024-01-30T06:59:25;51521.44;;;-145.38;100.00
8069;BME280;4077;43.702;24.896;2024-01-30T07:01:50;51517.53;;;-145.38;100.00
8069;BME280;4077;43.702;24.896;2024-01-30T07:04:16;51474.59;;;-145.38;100.00
8069;BME280;4077;43.702;24.896;2024-01-30T07:06:42;51509.72;;;-145.38;100.00
8069;BME280;4077;43.702;24.896;2024-01-30T07:09:08;51521.44;;;-145.38;100.00
8069;BME280;4077;43.702;24.896;2024-01-30T07:11:36;51490.19;;;-145.38;100.00
8069;BME280;4077;43.702;24.896;2024-01-30T07:14:02;51537.06;;;-145.38;100.00
8069;BME280;4077;43.702;24.896;2024-01-30T07:16:30;51548.78;;;-145.38;100.00
8069;BME280;4077;43.702;24.896;2024-01-30T07:18:55;51478.50;;;-145.38;100.00
8069;BME280;4077;43.702;24.896;2024-01-30T07:21:21;51525.34;;;-145.38;100.00
8069;BME280;4077;43.702;24.896;2024-01-30T07:23:53;51482.38;;;-145.38;100.00
8069;BME280;4077;43.702;24.896;2024-01-30T07:26:19;51482.38;;;-145.38;100.00
8069;BME280;4077;43.702;24.896;2024-01-30T07:28:44;51501.91;;;-145.38;100.00
8069;BME280;4077;43.702;24.896;2024-01-30T07:31:10;51466.78;;;-145.38;100.00
8069;BME280;4077;43.702;24.896;2024-01-30T07:33:35;51513.63;;;-145.38;100.00
8069;BME280;4077;43.702;24.896;2024-01-30T07:36:01;51515.59;;;-145.38;100.00
8069;BME280;4077;43.702;24.896;2024-01-30T07:38:26;51533.16;;;-145.38;100.00
8069;BME280;4077;43.702;24.896;2024-01-30T07:40:52;51515.59;;;-145.38;100.00
8069;BME280;4077;43.702;24.896;2024-01-30T07:43:17;51505.81;;;-145.38;100.00
8069;BME280;4077;43.702;24.896;2024-01-30T07:45:43;51505.81;;;-145.38;100.00
8069;BME280;4077;43.702;24.896;2024-01-30T07:48:08;51482.38;;;-145.38;100.00
8069;BME280;4077;43.702;24.896;2024-01-30T07:50:34;51498.00;;;-145.38;100.00
8069;BME280;4077;43.702;24.896;2024-01-30T07:53:00;51458.97;;;-145.38;100.00
8069;BME280;4077;43.702;24.896;2024-01-30T07:55:25;51496.06;;;-145.38;100.00
8069;BME280;4077;43.702;24.896;2024-01-30T07:57:54;51490.19;;;-145.38;100.00
8069;BME280;4077;43.702;24.896;2024-01-30T08:00:21;51466.78;;;-145.38;100.00
8069;BME280;4077;43.702;24.896;2024-01-30T08:02:47;51482.38;;;-145.38;100.00
8069;BME280;4077;43.702;24.896;2024-01-30T08:05:19;51521.44;;;-145.38;100.00
8069;BME280;4077;43.702;24.896;2024-01-30T08:07:47;51486.28;;;-145.38;100.00
8069;BME280;4077;43.702;24.896;2024-01-30T08:10:13;51505.81;;;-145.38;100.00
8069;BME280;4077;43.702;24.896;2024-01-30T08:12:38;51494.09;;;-145.38;100.00
8069;BME280;4077;43.702;24.896;2024-01-30T08:15:04;51494.09;;;-145.38;100.00
8069;BME280;4077;43.702;24.896;2024-01-30T08:17:30;51443.34;;;-145.38;100.00
8069;BME280;4077;43.702;24.896;2024-01-30T08:19:55;51521.44;;;-145.38;100.00
8069;BME280;4077;43.702;24.896;2024-01-30T08:22:21;51482.38;;;-145.38;100.00
8069;BME280;4077;43.702;24.896;2024-01-30T08:24:46;51488.25;;;-145.38;100.00
8069;BME280;4077;43.702;24.896;2024-01-30T08:27:12;51484.34;;;-145.38;100.00
8069;BME280;4077;43.702;24.896;2024-01-30T08:29:38;51505.81;;;-145.38;100.00
8069;BME280;4077;43.702;24.896;2024-01-30T08:32:07;51458.97;;;-145.38;100.00
8069;BME280;4077;43.702;24.896;2024-01-30T08:34:32;51505.81;;;-145.38;100.00
8069;BME280;4077;43.702;24.896;2024-01-30T08:36:58;51431.63;;;-145.38;100.00
8069;BME280;4077;43.702;24.896;2024-01-30T08:39:23;51474.59;;;-145.38;100.00
8069;BME280;4077;43.702;24.896;2024-01-30T08:41:49;51521.44;;;-145.38;100.00
8069;BME280;4077;43.702;24.896;2024-01-30T08:44:14;51482.38;;;-145.38;100.00
8069;BME280;4077;43.702;24.896;2024-01-30T08:46:40;51488.25;;;-145.38;100.00
8069;BME280;4077;43.702;24.896;2024-01-30T08:49:06;51462.88;;;-145.38;100.00
8069;BME280;4077;43.702;24.896;2024-01-30T08:51:31;51476.53;;;-145.38;100.00
8069;BME280;4077;43.702;24.896;2024-01-30T08:53:57;51474.59;;;-145.38;100.00
8069;BME280;4077;43.702;24.896;2024-01-30T08:56:22;51466.78;;;-145.38;100.00
8069;BME280;4077;43.702;24.896;2024-01-30T08:58:48;51509.72;;;-145.38;100.00
8069;BME280;4077;43.702;24.896;2024-01-30T09:01:14;51474.59;;;-145.38;100.00
8069;BME280;4077;43.702;24.896;2024-01-30T09:03:39;51464.81;;;-145.38;100.00
8069;BME280;4077;43.702;24.896;2024-01-30T09:06:11;51474.59;;;-145.38;100.00
8069;BME280;4077;43.702;24.896;2024-01-30T09:08:38;51482.38;;;-145.38;100.00
8069;BME280;4077;43.702;24.896;2024-01-30T09:11:11;51455.06;;;-145.38;100.00
8069;BME280;4077;43.702;24.896;2024-01-30T09:13:36;51501.91;;;-145.38;100.00
8069;BME280;4077;43.702;24.896;2024-01-30T09:16:03;51458.97;;;-145.38;100.00
8069;BME280;4077;43.702;24.896;2024-01-30T09:18:28;51443.34;;;-145.38;99.54
8069;BME280;4077;43.702;24.896;2024-01-30T09:20:54;51482.38;;;-145.38;97.21
8069;BME280;4077;43.702;24.896;2024-01-30T09:23:19;51478.50;;;-145.38;97.91
8069;BME280;4077;43.702;24.896;2024-01-30T09:25:45;51480.44;;;-145.38;96.99
8069;BME280;4077;43.702;24.896;2024-01-30T09:28:10;51480.44;;;-145.38;92.72
8069;BME280;4077;43.702;24.896;2024-01-30T09:30:36;51468.72;;;-145.38;91.86
8069;BME280;4077;43.702;24.896;2024-01-30T09:33:02;51466.78;;;-145.38;92.18
8069;BME280;4077;43.702;24.896;2024-01-30T09:35:27;51437.50;;;-145.38;87.86
8069;BME280;4077;43.702;24.896;2024-01-30T09:37:53;51447.25;;;-145.38;83.29
8069;BME280;4077;43.702;24.896;2024-01-30T09:40:18;51478.50;;;-145.38;84.21
8069;BME280;4077;43.702;24.896;2024-01-30T09:42:47;51431.63;;;-145.38;84.34
8069;BME280;4077;43.702;24.896;2024-01-30T09:45:17;51505.81;;;-145.38;87.63
8069;BME280;4077;43.702;24.896;2024-01-30T09:47:44;51490.19;;;-145.38;85.74
8069;BME280;4077;43.702;24.896;2024-01-30T09:50:11;51455.06;;;-145.38;83.96
8069;BME280;4077;43.702;24.896;2024-01-30T09:52:37;51505.81;;;-145.38;84.85
8069;BME280;4077;43.702;24.896;2024-01-30T09:55:04;51466.78;;;-145.38;85.60
8069;BME280;4077;43.702;24.896;2024-01-30T09:57:29;51423.81;;;-145.38;86.02
8069;BME280;4077;43.702;24.896;2024-01-30T09:59:55;51474.59;;;-145.38;85.77
8069;BME280;4077;43.702;24.896;2024-01-30T10:02:21;51486.28;;;-145.38;87.24
8069;BME280;4077;43.702;24.896;2024-01-30T10:04:51;51474.59;;;-145.38;80.70
8069;BME280;4077;43.702;24.896;2024-01-30T10:07:18;51464.81;;;-145.38;80.11
8069;BME280;4077;43.702;24.896;2024-01-30T10:09:44;51455.06;;;-145.38;77.38
8069;BME280;4077;43.702;24.896;2024-01-30T10:12:10;51462.88;;;-145.38;76.03
8069;BME280;4077;43.702;24.896;2024-01-30T10:14:39;51443.34;;;-145.38;74.29
8069;BME280;4077;43.702;24.896;2024-01-30T10:17:06;51453.09;;;-145.38;75.67
8069;BME280;4077;43.702;24.896;2024-01-30T10:19:32;51501.91;;;-145.38;75.74
8069;BME280;4077;43.702;24.896;2024-01-30T10:21:59;51476.53;;;-145.38;75.12
8069;BME280;4077;43.702;24.896;2024-01-30T10:24:25;51414.06;;;-145.38;74.70
8069;BME280;4077;43.702;24.896;2024-01-30T10:26:51;51474.59;;;-145.38;71.44
8069;BME280;4077;43.702;24.896;2024-01-30T10:29:17;51455.06;;;-145.38;71.66
8069;BME280;4077;43.702;24.896;2024-01-30T10:31:42;51427.72;;;-145.38;70.94
8069;BME280;4077;43.702;24.896;2024-01-30T10:34:08;51427.72;;;-145.38;69.88
8069;BME280;4077;43.702;24.896;2024-01-30T10:36:41;51482.38;;;-145.38;70.18
8069;BME280;4077;43.702;24.896;2024-01-30T10:39:08;51482.38;;;-145.38;70.14
8069;BME280;4077;43.702;24.896;2024-01-30T10:41:42;51447.25;;;-145.38;68.89
8069;BME280;4077;43.702;24.896;2024-01-30T10:44:09;51455.06;;;-145.38;68.43
8069;BME280;4077;43.702;24.896;2024-01-30T10:46:35;51439.44;;;-145.38;67.19
8069;BME280;4077;43.702;24.896;2024-01-30T10:49:04;51443.34;;;-145.38;66.11
8069;BME280;4077;43.702;24.896;2024-01-30T10:51:31;51455.06;;;-145.38;65.92
8069;BME280;4077;43.702;24.896;2024-01-30T10:53:57;51468.72;;;-145.38;64.80
8069;BME280;4077;43.702;24.896;2024-01-30T10:56:23;51460.91;;;-145.38;63.35
8069;BME280;4077;43.702;24.896;2024-01-30T10:58:53;51439.44;;;-145.38;63.77
8069;BME280;4077;43.702;24.896;2024-01-30T11:01:19;51451.16;;;-145.38;62.09
8069;BME280;4077;43.702;24.896;2024-01-30T11:03:51;51478.50;;;-145.38;62.10
8069;BME280;4077;43.702;24.896;2024-01-30T11:06:16;51460.91;;;-145.38;59.81
8069;BME280;4077;43.702;24.896;2024-01-30T11:08:44;51451.16;;;-145.38;58.78
8069;BME280;4077;43.702;24.896;2024-01-30T11:11:10;51478.50;;;-145.38;58.51
8069;BME280;4077;43.702;24.896;2024-01-30T11:13:36;51449.22;;;-145.38;57.20
8069;BME280;4077;43.702;24.896;2024-01-30T11:16:02;51455.06;;;-145.38;56.94
8069;BME280;4077;43.702;24.896;2024-01-30T11:18:30;51486.28;;;-145.38;57.62
8069;BME280;4077;43.702;24.896;2024-01-30T11:20:59;51462.88;;;-145.38;57.36
8069;BME280;4077;43.702;24.896;2024-01-30T11:23:27;51453.09;;;-145.38;57.34
8069;BME280;4077;43.702;24.896;2024-01-30T11:25:53;51466.78;;;-145.38;57.96
8069;BME280;4077;43.702;24.896;2024-01-30T11:28:20;51443.34;;;-145.38;57.77
8069;BME280;4077;43.702;24.896;2024-01-30T11:30:46;51455.06;;;-145.38;58.82
8069;BME280;4077;43.702;24.896;2024-01-30T11:33:13;51478.50;;;-145.38;58.49
8069;BME280;4077;43.702;24.896;2024-01-30T11:35:44;51445.31;;;-145.38;57.28
8069;BME280;4077;43.702;24.896;2024-01-30T11:38:13;51437.50;;;-145.38;56.83
8069;BME280;4077;43.702;24.896;2024-01-30T11:40:39;51464.81;;;-145.38;56.46
8069;BME280;4077;43.702;24.896;2024-01-30T11:43:07;51435.53;;;-145.38;55.70
8069;BME280;4077;43.702;24.896;2024-01-30T11:45:33;51464.81;;;-145.38;56.24
8069;BME280;4077;43.702;24.896;2024-01-30T11:48:00;51441.41;;;-145.38;55.10
8069;BME280;4077;43.702;24.896;2024-01-30T11:50:26;51449.22;;;-145.38;55.54
8069;BME280;4077;43.702;24.896;2024-01-30T11:52:54;51453.09;;;-145.38;54.91
8069;BME280;4077;43.702;24.896;2024-01-30T11:55:20;51437.50;;;-145.38;54.97
8069;BME280;4077;43.702;24.896;2024-01-30T11:57:45;51455.06;;;-145.38;55.30
8069;BME280;4077;43.702;24.896;2024-01-30T12:00:18;51474.59;;;-145.38;54.68
8069;BME280;4077;43.702;24.896;2024-01-30T12:02:53;51460.91;;;-145.38;53.99
8069;BME280;4077;43.702;24.896;2024-01-30T12:05:23;51455.06;;;-145.38;54.06
8069;BME280;4077;43.702;24.896;2024-01-30T12:07:49;51455.06;;;-145.38;54.92
8069;BME280;4077;43.702;24.896;2024-01-30T12:10:14;51447.25;;;-145.38;53.54
8069;BME280;4077;43.702;24.896;2024-01-30T12:12:46;51476.53;;;-145.38;54.08
8069;BME280;4077;43.702;24.896;2024-01-30T12:15:12;51482.38;;;-145.38;53.44
8069;BME280;4077;43.702;24.896;2024-01-30T12:17:37;51443.34;;;-145.38;53.64
8069;BME280;4077;43.702;24.896;2024-01-30T12:22:37;51449.22;;;-145.38;53.46
8069;BME280;4077;43.702;24.896;2024-01-30T12:25:10;51443.34;;;-145.38;52.42
8069;BME280;4077;43.702;24.896;2024-01-30T12:27:37;51474.59;;;-145.38;52.83
8069;BME280;4077;43.702;24.896;2024-01-30T12:30:10;51441.41;;;-145.38;53.29
8069;BME280;4077;43.702;24.896;2024-01-30T12:32:38;51437.50;;;-145.38;52.71
8069;BME280;4077;43.702;24.896;2024-01-30T12:35:07;51503.88;;;-145.38;52.65
8069;BME280;4077;43.702;24.896;2024-01-30T12:37:34;51445.31;;;-145.38;53.02
8069;BME280;4077;43.702;24.896;2024-01-30T12:40:00;51435.53;;;-145.38;53.35
8069;BME280;4077;43.702;24.896;2024-01-30T12:42:27;51458.97;;;-145.38;53.08
8069;BME280;4077;43.702;24.896;2024-01-30T12:44:53;51460.91;;;-145.38;53.55